Accueil
METAR-TAF:

METAR-TAF

Aéroports :

Tanegashima, Japon

latitude: 30-33N, longitude: 130-57E, altitude: 92 m

Observation

Le bulletin a été fait il y a 2 heures et 34 minutes, à 09:00 UTC
Vent 7 kt de sud/sud-est
Température 16°C
Humidité 68%
Pression 1018 hPa
Visibilité 10 km ou plus
Quelques nuages à une hauteur de 2000 ft
Nuages fragmentés à une hauteur de 6000 ft

METAR: RJFG 030900Z 15007KT 9999 FEW020 BKN060 16/10 Q1018

Heure: 20:34 (11:34 UTC)


TAF: absent

Observations et prévisions météorologiques de plus de 4000 aéroports (messages METAR et TAF).

Les stations disponibles sont représentées par des disques jaunes et rouges sur la carte.

Passer la souris dessus pour voir le nom de la station.

Cliquer dessus pour voir les observations et prévisions météorologiques.

Pour changer de carte: cliquez sur les boutons verts avec une croix noire pour zoomer, sur le bouton vert avec un tiret pour effectuer un zoom arrière, ou sur les flèches vertes pour les cartes adjacentes.


METAR-TAF: